createdAt,value
2022-10-02T00:01:37.020Z,11.90
2022-10-02T00:05:50.954Z,15.40
2022-10-02T00:10:12.600Z,9.40
2022-10-02T00:14:28.379Z,9.20
2022-10-02T00:18:40.260Z,8.90
2022-10-02T00:22:58.043Z,12.80
2022-10-02T00:27:17.495Z,11.30
2022-10-02T00:31:45.073Z,14.20
2022-10-02T00:36:00.327Z,10.60
2022-10-02T00:40:23.108Z,11.80
2022-10-02T00:44:45.486Z,9.90
2022-10-02T00:49:00.469Z,10.40
2022-10-02T00:53:17.212Z,10.70
2022-10-02T00:57:42.325Z,13.50
2022-10-02T01:02:53.454Z,7.50
2022-10-02T01:06:56.161Z,12.10
2022-10-02T01:11:02.539Z,6.40
2022-10-02T01:15:18.558Z,11.80
2022-10-02T01:19:34.089Z,7.00
2022-10-02T01:23:39.372Z,9.00
2022-10-02T01:27:41.913Z,10.00
2022-10-02T01:31:45.308Z,7.40
2022-10-02T01:35:50.407Z,8.80
2022-10-02T01:39:53.637Z,12.50
2022-10-02T01:44:01.804Z,8.70
2022-10-02T01:48:29.635Z,10.70
2022-10-02T01:52:51.290Z,11.60
2022-10-02T01:57:16.669Z,10.00
2022-10-02T02:01:24.759Z,9.80
2022-10-02T02:05:45.933Z,10.50
2022-10-02T02:10:34.490Z,10.40
2022-10-02T02:15:11.275Z,11.30
2022-10-02T02:19:16.604Z,7.70
2022-10-02T02:23:50.483Z,13.40
2022-10-02T02:28:18.027Z,10.40
2022-10-02T02:32:50.316Z,7.50
2022-10-02T02:37:18.924Z,8.30
2022-10-02T02:41:29.364Z,9.30
2022-10-02T02:45:53.362Z,9.90
2022-10-02T02:50:08.574Z,8.90
2022-10-02T02:54:17.448Z,7.80
2022-10-02T02:59:05.211Z,13.40
2022-10-02T03:03:29.037Z,8.40
2022-10-02T03:07:31.746Z,7.10
2022-10-02T03:11:55.480Z,6.90
2022-10-02T03:16:20.023Z,7.30
2022-10-02T03:20:45.807Z,8.20
2022-10-02T03:25:09.786Z,9.20
2022-10-02T03:29:28.540Z,8.90
2022-10-02T03:33:37.459Z,9.10
2022-10-02T03:37:52.420Z,7.70
2022-10-02T03:41:57.495Z,8.60
2022-10-02T03:46:07.599Z,9.80
2022-10-02T03:50:18.763Z,10.60
2022-10-02T03:54:22.390Z,7.80
2022-10-02T03:58:25.562Z,11.10
2022-10-02T04:02:43.109Z,11.40
2022-10-02T04:07:07.399Z,8.20
2022-10-02T04:11:23.451Z,10.30
2022-10-02T04:15:37.113Z,9.70
2022-10-02T04:19:45.928Z,9.30
2022-10-02T04:24:02.646Z,11.10
2022-10-02T04:28:18.495Z,10.20
2022-10-02T04:32:33.473Z,6.70
2022-10-02T04:36:46.036Z,9.10
2022-10-02T04:41:15.413Z,9.10
2022-10-02T04:45:39.521Z,8.80
2022-10-02T04:50:09.368Z,9.80
2022-10-02T04:54:33.753Z,16.20
2022-10-02T04:58:54.308Z,12.50
2022-10-02T05:03:26.787Z,12.80
2022-10-02T05:07:49.979Z,9.10
2022-10-02T05:12:31.337Z,11.60
2022-10-02T05:16:34.015Z,11.20
2022-10-02T05:21:30.682Z,13.30
2022-10-02T05:25:42.942Z,8.30
2022-10-02T05:30:13.473Z,8.60
2022-10-02T05:34:21.280Z,10.80
2022-10-02T05:38:35.613Z,12.40
2022-10-02T05:43:22.860Z,15.10
2022-10-02T05:47:40.953Z,7.60
2022-10-02T05:51:59.225Z,9.90
2022-10-02T05:56:27.651Z,7.10
2022-10-02T06:00:37.486Z,9.20
2022-10-02T06:04:55.626Z,6.00
2022-10-02T06:09:26.989Z,10.80
2022-10-02T06:13:51.921Z,9.50
2022-10-02T06:18:01.733Z,12.60
2022-10-02T06:22:55.942Z,11.30
2022-10-02T06:27:38.289Z,16.00
2022-10-02T06:31:58.089Z,8.80
2022-10-02T06:36:34.852Z,10.00
2022-10-02T06:41:01.310Z,10.10
2022-10-02T06:45:39.851Z,6.90
2022-10-02T06:50:34.225Z,10.90
2022-10-02T06:55:00.666Z,6.90
2022-10-02T07:10:12.767Z,7.10
2022-10-02T07:14:59.966Z,6.10
2022-10-02T07:19:59.857Z,5.70
2022-10-02T07:24:27.559Z,5.40
2022-10-02T07:35:15.449Z,8.20
2022-10-02T07:51:30.454Z,4.00
2022-10-02T07:55:42.324Z,7.00
2022-10-02T08:00:18.040Z,6.70
2022-10-02T08:04:36.703Z,7.20
2022-10-02T08:08:51.530Z,9.90
2022-10-02T08:13:22.266Z,3.60
2022-10-02T08:17:46.795Z,5.20
2022-10-02T08:22:13.876Z,6.60
2022-10-02T08:26:35.854Z,6.60
2022-10-02T08:30:38.809Z,10.80
2022-10-02T08:34:43.085Z,12.10
2022-10-02T08:38:54.471Z,5.40
2022-10-02T08:42:59.765Z,13.10
2022-10-02T08:47:47.004Z,3.60
2022-10-02T08:52:22.983Z,7.20
2022-10-02T08:56:43.606Z,11.10
2022-10-02T09:01:04.055Z,11.60
2022-10-02T09:05:43.511Z,9.50
2022-10-02T09:10:17.503Z,5.00
2022-10-02T09:15:09.281Z,11.00
2022-10-02T09:19:43.096Z,13.20
2022-10-02T09:24:06.667Z,9.20
2022-10-02T09:28:42.443Z,10.00
2022-10-02T09:33:16.084Z,11.00
2022-10-02T09:38:03.768Z,12.20
2022-10-02T09:42:19.576Z,8.10
2022-10-02T09:46:46.300Z,18.50
2022-10-02T09:51:10.004Z,16.00
2022-10-02T09:55:30.852Z,16.60
2022-10-02T09:59:50.011Z,11.80
2022-10-02T10:04:47.841Z,10.80
2022-10-02T10:09:16.664Z,8.90
2022-10-02T10:13:21.807Z,9.80
2022-10-02T10:17:30.211Z,13.30
2022-10-02T10:26:09.269Z,11.90
2022-10-02T10:30:14.305Z,10.80
2022-10-02T10:34:53.350Z,6.30
2022-10-02T10:39:37.127Z,14.20
2022-10-02T10:44:00.646Z,10.00
2022-10-02T10:48:24.616Z,11.10
2022-10-02T10:52:29.412Z,7.10
2022-10-02T10:56:48.750Z,20.30
2022-10-02T11:00:53.435Z,14.80
2022-10-02T11:05:32.660Z,15.60
2022-10-02T11:09:59.651Z,5.80
2022-10-02T11:14:30.761Z,8.10
2022-10-02T11:19:21.520Z,5.10
2022-10-02T11:23:35.748Z,11.40
2022-10-02T11:27:43.565Z,18.10
2022-10-02T11:32:01.990Z,17.70
2022-10-02T11:36:26.273Z,16.10
2022-10-02T11:40:48.925Z,8.70
2022-10-02T11:45:12.335Z,15.10
2022-10-02T11:49:39.669Z,12.20
2022-10-02T11:54:19.072Z,9.60
2022-10-02T11:58:56.351Z,9.70
2022-10-02T12:03:01.309Z,8.60
2022-10-02T12:07:13.600Z,6.10
2022-10-02T12:11:52.113Z,11.00
2022-10-02T12:16:09.984Z,12.80
2022-10-02T12:20:36.129Z,11.10
2022-10-02T12:25:33.133Z,10.10
2022-10-02T12:30:00.839Z,17.20
2022-10-02T12:34:09.084Z,17.70
2022-10-02T12:38:38.384Z,8.70
2022-10-02T12:43:16.196Z,15.90
2022-10-02T12:47:35.580Z,12.40
2022-10-02T12:51:46.478Z,13.10
2022-10-02T12:56:22.573Z,12.40
2022-10-02T13:00:29.009Z,8.50
2022-10-02T13:04:43.361Z,9.60
2022-10-02T13:09:04.781Z,10.50
2022-10-02T13:13:24.528Z,13.20
2022-10-02T13:17:45.787Z,11.40
2022-10-02T13:22:13.701Z,8.40
2022-10-02T13:26:25.432Z,11.50
2022-10-02T13:30:33.185Z,11.90
2022-10-02T13:34:50.636Z,15.30
2022-10-02T13:38:58.998Z,13.60
2022-10-02T13:43:34.113Z,10.90
2022-10-02T13:48:07.432Z,11.70
2022-10-02T13:52:22.513Z,11.80
2022-10-02T13:56:38.397Z,15.30
2022-10-02T14:00:46.695Z,14.50
2022-10-02T14:04:48.585Z,11.30
2022-10-02T14:09:02.613Z,8.70
2022-10-02T14:13:41.934Z,9.30
2022-10-02T14:18:07.692Z,10.00
2022-10-02T14:22:28.149Z,17.50
2022-10-02T14:26:55.748Z,9.90
2022-10-02T14:31:26.069Z,12.90
2022-10-02T14:35:43.400Z,11.10
2022-10-02T14:39:45.415Z,12.90
2022-10-02T14:44:03.074Z,16.40
2022-10-02T14:48:44.786Z,14.60
2022-10-02T14:53:28.919Z,46.50
2022-10-02T14:57:53.192Z,22.80
2022-10-02T15:02:10.268Z,36.40
2022-10-02T15:06:31.109Z,36.10
2022-10-02T15:10:38.160Z,16.90
2022-10-02T15:15:08.741Z,18.40
2022-10-02T15:19:16.074Z,56.70
2022-10-02T15:23:40.952Z,60.10
2022-10-02T15:28:31.309Z,26.10
2022-10-02T15:32:39.905Z,64.20
2022-10-02T15:36:48.868Z,48.80
2022-10-02T15:41:12.754Z,41.50
2022-10-02T15:45:42.438Z,31.80
2022-10-02T15:50:10.094Z,60.90
2022-10-02T15:54:14.742Z,25.30
2022-10-02T15:58:35.260Z,15.50
2022-10-02T16:02:59.697Z,66.00
2022-10-02T16:07:36.742Z,82.80
2022-10-02T16:11:41.755Z,48.90
2022-10-02T16:16:23.899Z,25.80
2022-10-02T16:20:47.926Z,30.10
2022-10-02T16:25:34.770Z,29.40
2022-10-02T16:30:13.551Z,38.00
2022-10-02T16:35:01.030Z,71.00
2022-10-02T16:39:21.549Z,41.20
2022-10-02T16:43:42.780Z,50.10
2022-10-02T16:47:53.811Z,37.10
2022-10-02T16:52:03.115Z,37.50
2022-10-02T16:56:15.922Z,31.90
2022-10-02T17:00:31.809Z,28.00
2022-10-02T17:04:45.837Z,27.20
2022-10-02T17:08:53.402Z,23.60
2022-10-02T17:13:13.479Z,33.70
2022-10-02T17:17:41.544Z,35.20
2022-10-02T17:22:11.560Z,50.90
2022-10-02T17:26:40.657Z,53.10
2022-10-02T17:30:51.830Z,57.70
2022-10-02T17:34:58.442Z,51.90
2022-10-02T17:39:22.544Z,53.40
2022-10-02T17:43:42.111Z,63.80
2022-10-02T17:48:14.927Z,77.10
2022-10-02T17:53:01.632Z,63.70
2022-10-02T17:57:43.652Z,39.00
2022-10-02T18:02:19.596Z,26.20
2022-10-02T18:06:37.560Z,42.60
2022-10-02T18:11:06.762Z,71.50
2022-10-02T18:15:27.254Z,101.10
2022-10-02T18:19:54.898Z,56.90
2022-10-02T18:24:26.843Z,44.60
2022-10-02T18:28:43.482Z,46.90
2022-10-02T18:33:16.683Z,53.30
2022-10-02T18:37:37.394Z,50.80
2022-10-02T18:42:24.365Z,60.10
2022-10-02T18:46:51.316Z,41.70
2022-10-02T18:51:11.372Z,26.00
2022-10-02T18:55:28.356Z,29.60
2022-10-02T18:59:36.839Z,36.40
2022-10-02T19:03:55.235Z,42.30
2022-10-02T19:08:03.244Z,37.80
2022-10-02T19:12:23.621Z,37.40
2022-10-02T19:16:26.659Z,28.80
2022-10-02T19:20:50.454Z,74.30
2022-10-02T19:24:56.961Z,40.20
2022-10-02T19:29:05.201Z,33.90
2022-10-02T19:33:08.340Z,29.00
2022-10-02T19:37:15.883Z,22.70
2022-10-02T19:41:19.048Z,29.60
2022-10-02T19:45:26.409Z,31.70
2022-10-02T19:49:37.889Z,32.00
2022-10-02T19:53:55.499Z,27.50
2022-10-02T19:58:05.908Z,38.20
2022-10-02T20:02:29.548Z,24.00
2022-10-02T20:06:39.322Z,21.00
2022-10-02T20:11:22.937Z,39.60
2022-10-02T20:16:16.627Z,49.10
2022-10-02T20:20:20.263Z,43.80
2022-10-02T20:24:45.488Z,37.50
2022-10-02T20:28:56.949Z,27.10
2022-10-02T20:33:09.253Z,27.40
2022-10-02T20:37:18.444Z,16.80
2022-10-02T20:41:27.803Z,17.60
2022-10-02T20:45:40.008Z,19.70
2022-10-02T20:50:00.479Z,18.10
2022-10-02T20:54:23.079Z,17.10
2022-10-02T20:58:40.153Z,17.90
2022-10-02T21:03:06.837Z,16.40
2022-10-02T21:07:39.600Z,17.70
2022-10-02T21:12:18.634Z,14.70
2022-10-02T21:17:05.905Z,15.70
2022-10-02T21:21:53.794Z,14.00
2022-10-02T21:26:04.908Z,8.10
2022-10-02T21:30:15.980Z,8.50
2022-10-02T21:34:23.686Z,7.30
2022-10-02T21:38:51.635Z,10.20
2022-10-02T21:43:25.717Z,12.80
2022-10-02T21:47:54.696Z,15.40
2022-10-02T21:52:15.141Z,12.80
2022-10-02T21:56:52.401Z,6.00
2022-10-02T22:01:06.109Z,11.10
2022-10-02T22:05:25.412Z,9.60
2022-10-02T22:09:44.210Z,10.20
2022-10-02T22:13:48.796Z,5.20
2022-10-02T22:18:33.690Z,11.50
2022-10-02T22:22:54.230Z,9.90
2022-10-02T22:27:14.382Z,5.80
2022-10-02T22:31:29.846Z,7.70
2022-10-02T22:36:09.175Z,6.40
2022-10-02T22:40:23.219Z,3.10
2022-10-02T22:44:30.034Z,2.60
2022-10-02T22:48:45.696Z,7.70
2022-10-02T22:53:04.501Z,4.70
2022-10-02T22:57:43.177Z,5.50
2022-10-02T23:01:54.617Z,9.90
2022-10-02T23:06:05.971Z,2.90
2022-10-02T23:10:10.810Z,6.20
2022-10-02T23:14:22.670Z,9.00
2022-10-02T23:18:48.061Z,6.00
2022-10-02T23:22:59.088Z,6.00
2022-10-02T23:27:23.591Z,3.70
2022-10-02T23:31:31.630Z,9.30
2022-10-02T23:35:45.204Z,7.80
2022-10-02T23:39:54.569Z,5.90
2022-10-02T23:44:02.729Z,5.70
2022-10-02T23:48:11.171Z,5.50
2022-10-02T23:52:34.629Z,4.70
2022-10-02T23:56:53.254Z,8.50
